Kirishima Maru No.5 — JD2506 — position and weather

sailwx.info

Track history (hours):
 
Tides and Currents Weather Stations Pressure Air Temp Water Temp Dewpoint Dewpoint Depression Visibility Wind Speed Wind Dir Waves Ship Positions

Kirishima Maru No.5

Last reported at 2014-Dec-08 19:33 UTC. Time now 2014-Dec-18 00:56 UTC.
Position N 34°06' E 134°59'.
Warning: this ship's position is 9 days out of date.

Length 105 m; draft 5.4 m.

Type: Tanker. MMSI: 431000338.

Date/timePositionNaut miles runAvg speedWind from/ knotsBaromVisibWave heightAir tempDewpointWater temp
2014-Dec-08 19:33N 34°06' E 134°59'1816.4
2014-Dec-08 18:28N 34°24' E 135°00'1414.8
2014-Dec-08 17:33N 34°37' E 135°00'  
2014-Dec-05 00:06N 34°36' E 134°54'814.5
2014-Dec-04 23:33N 34°36' E 135°03'1414.0
2014-Dec-04 22:32N 34°22' E 135°02'1515.2
2014-Dec-04 21:33N 34°07' E 134°59'  
2014-Nov-29 23:12N 33°57' E 134°59'1015.3
2014-Nov-29 22:33N 34°07' E 134°58'1715.4
2014-Nov-29 21:27N 34°24' E 135°00'1314.2
2014-Nov-29 20:33N 34°36' E 135°03'  
Track history (hours):
 
Tides and Currents Weather Stations Pressure Air Temp Water Temp Dewpoint Dewpoint Depression Visibility Wind Speed Wind Dir Waves Ship Positions

Kirishima Maru No.5

Last reported at 2014-Dec-08 19:33 UTC. Time now 2014-Dec-18 00:56 UTC.
Position N 34°06' E 134°59'.
Warning: this ship's position is 9 days out of date.

Length 105 m; draft 5.4 m.

Type: Tanker. MMSI: 431000338.

Date/timePositionNaut miles runAvg speedWind from/ knotsBaromVisibWave heightAir tempDewpointWater temp
2014-Dec-08 19:33N 34°06' E 134°59'1816.4
2014-Dec-08 18:28N 34°24' E 135°00'1414.8
2014-Dec-08 17:33N 34°37' E 135°00'  
2014-Dec-05 00:06N 34°36' E 134°54'814.5
2014-Dec-04 23:33N 34°36' E 135°03'1414.0
2014-Dec-04 22:32N 34°22' E 135°02'1515.2
2014-Dec-04 21:33N 34°07' E 134°59'  
2014-Nov-29 23:12N 33°57' E 134°59'1015.3
2014-Nov-29 22:33N 34°07' E 134°58'1715.4
2014-Nov-29 21:27N 34°24' E 135°00'1314.2
2014-Nov-29 20:33N 34°36' E 135°03'  

Dump ship's entire track history